sensor_id;sensor_type;location;lat;lon;timestamp;P1;P2;P0
52290;PMS5003;39663;45.432;28.050;2023-02-26T00:00:24;50.0;42.0;
52290;PMS5003;39663;45.432;28.050;2023-02-26T00:00:55;55.0;47.0;
52290;PMS5003;39663;45.432;28.050;2023-02-26T00:01:28;54.0;49.0;
52290;PMS5003;39663;45.432;28.050;2023-02-26T00:02:01;52.0;46.0;
52290;PMS5003;39663;45.432;28.050;2023-02-26T00:02:32;52.0;46.0;
52290;PMS5003;39663;45.432;28.050;2023-02-26T00:03:04;54.0;47.0;
52290;PMS5003;39663;45.432;28.050;2023-02-26T00:03:35;54.0;48.0;
52290;PMS5003;39663;45.432;28.050;2023-02-26T00:04:07;50.0;47.0;
52290;PMS5003;39663;45.432;28.050;2023-02-26T00:04:40;49.0;46.0;
52290;PMS5003;39663;45.432;28.050;2023-02-26T00:05:12;58.0;51.0;
52290;PMS5003;39663;45.432;28.050;2023-02-26T00:05:44;62.0;53.0;
52290;PMS5003;39663;45.432;28.050;2023-02-26T00:06:16;54.0;48.0;
52290;PMS5003;39663;45.432;28.050;2023-02-26T00:06:48;54.0;50.0;
52290;PMS5003;39663;45.432;28.050;2023-02-26T00:07:19;46.0;44.0;
52290;PMS5003;39663;45.432;28.050;2023-02-26T00:07:51;45.0;44.0;
52290;PMS5003;39663;45.432;28.050;2023-02-26T00:08:22;55.0;50.0;
52290;PMS5003;39663;45.432;28.050;2023-02-26T00:08:54;46.0;43.0;
52290;PMS5003;39663;45.432;28.050;2023-02-26T00:09:26;55.0;46.0;
52290;PMS5003;39663;45.432;28.050;2023-02-26T00:09:57;56.0;51.0;
52290;PMS5003;39663;45.432;28.050;2023-02-26T00:10:29;58.0;47.0;
52290;PMS5003;39663;45.432;28.050;2023-02-26T00:11:01;48.0;47.0;
52290;PMS5003;39663;45.432;28.050;2023-02-26T00:11:37;52.0;46.0;
52290;PMS5003;39663;45.432;28.050;2023-02-26T00:12:10;48.0;43.0;
52290;PMS5003;39663;45.432;28.050;2023-02-26T00:12:42;54.0;50.0;
52290;PMS5003;39663;45.432;28.050;2023-02-26T00:13:14;57.0;48.0;
52290;PMS5003;39663;45.432;28.050;2023-02-26T00:13:46;57.0;53.0;
52290;PMS5003;39663;45.432;28.050;2023-02-26T00:14:18;45.0;40.0;
52290;PMS5003;39663;45.432;28.050;2023-02-26T00:14:51;60.0;49.0;
52290;PMS5003;39663;45.432;28.050;2023-02-26T00:15:23;50.0;47.0;
52290;PMS5003;39663;45.432;28.050;2023-02-26T00:15:55;52.0;46.0;
52290;PMS5003;39663;45.432;28.050;2023-02-26T00:16:31;42.0;39.0;
52290;PMS5003;39663;45.432;28.050;2023-02-26T00:17:08;47.0;41.0;
52290;PMS5003;39663;45.432;28.050;2023-02-26T00:17:57;63.0;53.0;
52290;PMS5003;39663;45.432;28.050;2023-02-26T00:18:33;56.0;49.0;
52290;PMS5003;39663;45.432;28.050;2023-02-26T00:19:05;57.0;55.0;
52290;PMS5003;39663;45.432;28.050;2023-02-26T00:19:38;79.0;70.0;
52290;PMS5003;39663;45.432;28.050;2023-02-26T00:20:10;80.0;73.0;
52290;PMS5003;39663;45.432;28.050;2023-02-26T00:20:43;64.0;60.0;
52290;PMS5003;39663;45.432;28.050;2023-02-26T00:21:15;62.0;53.0;
52290;PMS5003;39663;45.432;28.050;2023-02-26T00:21:48;55.0;52.0;
52290;PMS5003;39663;45.432;28.050;2023-02-26T00:22:20;67.0;58.0;
52290;PMS5003;39663;45.432;28.050;2023-02-26T00:22:52;113.0;101.0;
52290;PMS5003;39663;45.432;28.050;2023-02-26T00:23:24;54.0;49.0;
52290;PMS5003;39663;45.432;28.050;2023-02-26T00:23:56;45.0;43.0;
52290;PMS5003;39663;45.432;28.050;2023-02-26T00:24:28;60.0;48.0;
52290;PMS5003;39663;45.432;28.050;2023-02-26T00:24:59;61.0;51.0;
52290;PMS5003;39663;45.432;28.050;2023-02-26T00:25:31;58.0;50.0;
52290;PMS5003;39663;45.432;28.050;2023-02-26T00:26:03;48.0;46.0;
52290;PMS5003;39663;45.432;28.050;2023-02-26T00:26:34;52.0;45.0;
52290;PMS5003;39663;45.432;28.050;2023-02-26T00:27:06;50.0;46.0;
52290;PMS5003;39663;45.432;28.050;2023-02-26T00:27:39;53.0;46.0;
52290;PMS5003;39663;45.432;28.050;2023-02-26T00:28:12;59.0;49.0;
52290;PMS5003;39663;45.432;28.050;2023-02-26T00:28:44;55.0;48.0;
52290;PMS5003;39663;45.432;28.050;2023-02-26T00:29:16;50.0;42.0;
52290;PMS5003;39663;45.432;28.050;2023-02-26T00:29:48;50.0;43.0;
52290;PMS5003;39663;45.432;28.050;2023-02-26T00:30:20;52.0;43.0;
52290;PMS5003;39663;45.432;28.050;2023-02-26T00:30:52;56.0;49.0;
52290;PMS5003;39663;45.432;28.050;2023-02-26T00:31:24;46.0;44.0;
52290;PMS5003;39663;45.432;28.050;2023-02-26T00:31:57;55.0;48.0;
52290;PMS5003;39663;45.432;28.050;2023-02-26T00:32:29;52.0;46.0;
52290;PMS5003;39663;45.432;28.050;2023-02-26T00:33:01;46.0;40.0;
52290;PMS5003;39663;45.432;28.050;2023-02-26T00:33:33;46.0;42.0;
52290;PMS5003;39663;45.432;28.050;2023-02-26T00:34:05;59.0;51.0;
52290;PMS5003;39663;45.432;28.050;2023-02-26T00:34:41;50.0;48.0;
52290;PMS5003;39663;45.432;28.050;2023-02-26T00:35:14;59.0;50.0;
52290;PMS5003;39663;45.432;28.050;2023-02-26T00:35:46;48.0;45.0;
52290;PMS5003;39663;45.432;28.050;2023-02-26T00:36:20;45.0;42.0;
52290;PMS5003;39663;45.432;28.050;2023-02-26T00:36:58;52.0;45.0;
52290;PMS5003;39663;45.432;28.050;2023-02-26T00:37:47;51.0;49.0;
52290;PMS5003;39663;45.432;28.050;2023-02-26T00:38:27;62.0;51.0;
52290;PMS5003;39663;45.432;28.050;2023-02-26T00:39:06;50.0;44.0;
52290;PMS5003;39663;45.432;28.050;2023-02-26T00:39:50;51.0;45.0;
52290;PMS5003;39663;45.432;28.050;2023-02-26T00:40:34;57.0;45.0;
52290;PMS5003;39663;45.432;28.050;2023-02-26T00:41:08;51.0;44.0;
52290;PMS5003;39663;45.432;28.050;2023-02-26T00:41:40;59.0;47.0;
52290;PMS5003;39663;45.432;28.050;2023-02-26T00:42:12;55.0;46.0;
52290;PMS5003;39663;45.432;28.050;2023-02-26T00:42:44;66.0;51.0;
52290;PMS5003;39663;45.432;28.050;2023-02-26T00:43:17;59.0;48.0;
52290;PMS5003;39663;45.432;28.050;2023-02-26T00:43:50;48.0;44.0;
52290;PMS5003;39663;45.432;28.050;2023-02-26T00:44:22;44.0;41.0;
52290;PMS5003;39663;45.432;28.050;2023-02-26T00:44:54;51.0;48.0;
52290;PMS5003;39663;45.432;28.050;2023-02-26T00:45:26;53.0;46.0;
52290;PMS5003;39663;45.432;28.050;2023-02-26T00:46:00;59.0;49.0;
52290;PMS5003;39663;45.432;28.050;2023-02-26T00:46:41;49.0;44.0;
52290;PMS5003;39663;45.432;28.050;2023-02-26T00:47:21;62.0;51.0;
52290;PMS5003;39663;45.432;28.050;2023-02-26T00:48:05;44.0;43.0;
52290;PMS5003;39663;45.432;28.050;2023-02-26T00:48:51;53.0;43.0;
52290;PMS5003;39663;45.432;28.050;2023-02-26T00:49:37;51.0;46.0;
52290;PMS5003;39663;45.432;28.050;2023-02-26T00:50:20;51.0;47.0;
52290;PMS5003;39663;45.432;28.050;2023-02-26T00:50:55;61.0;50.0;
52290;PMS5003;39663;45.432;28.050;2023-02-26T00:51:31;56.0;49.0;
52290;PMS5003;39663;45.432;28.050;2023-02-26T00:52:13;57.0;51.0;
52290;PMS5003;39663;45.432;28.050;2023-02-26T00:52:59;51.0;44.0;
52290;PMS5003;39663;45.432;28.050;2023-02-26T00:53:39;54.0;43.0;
52290;PMS5003;39663;45.432;28.050;2023-02-26T00:54:17;57.0;50.0;
52290;PMS5003;39663;45.432;28.050;2023-02-26T00:54:50;56.0;50.0;
52290;PMS5003;39663;45.432;28.050;2023-02-26T00:55:22;54.0;49.0;
52290;PMS5003;39663;45.432;28.050;2023-02-26T00:55:53;47.0;41.0;
52290;PMS5003;39663;45.432;28.050;2023-02-26T00:56:25;62.0;54.0;
52290;PMS5003;39663;45.432;28.050;2023-02-26T00:56:57;63.0;56.0;
52290;PMS5003;39663;45.432;28.050;2023-02-26T00:57:29;57.0;46.0;
52290;PMS5003;39663;45.432;28.050;2023-02-26T00:58:00;44.0;39.0;
52290;PMS5003;39663;45.432;28.050;2023-02-26T00:58:32;58.0;49.0;
52290;PMS5003;39663;45.432;28.050;2023-02-26T00:59:03;50.0;44.0;
52290;PMS5003;39663;45.432;28.050;2023-02-26T00:59:35;53.0;47.0;
52290;PMS5003;39663;45.432;28.050;2023-02-26T01:00:07;49.0;44.0;
52290;PMS5003;39663;45.432;28.050;2023-02-26T01:00:39;57.0;47.0;
52290;PMS5003;39663;45.432;28.050;2023-02-26T01:01:11;53.0;48.0;
52290;PMS5003;39663;45.432;28.050;2023-02-26T01:01:43;50.0;47.0;
52290;PMS5003;39663;45.432;28.050;2023-02-26T01:02:15;56.0;49.0;
52290;PMS5003;39663;45.432;28.050;2023-02-26T01:02:46;53.0;48.0;
52290;PMS5003;39663;45.432;28.050;2023-02-26T01:03:18;57.0;47.0;
52290;PMS5003;39663;45.432;28.050;2023-02-26T01:03:50;53.0;47.0;
52290;PMS5003;39663;45.432;28.050;2023-02-26T01:04:23;50.0;44.0;
52290;PMS5003;39663;45.432;28.050;2023-02-26T01:04:55;47.0;42.0;
52290;PMS5003;39663;45.432;28.050;2023-02-26T01:05:27;51.0;48.0;
52290;PMS5003;39663;45.432;28.050;2023-02-26T01:05:59;61.0;51.0;
52290;PMS5003;39663;45.432;28.050;2023-02-26T01:06:32;44.0;43.0;
52290;PMS5003;39663;45.432;28.050;2023-02-26T01:07:08;62.0;47.0;
52290;PMS5003;39663;45.432;28.050;2023-02-26T01:07:42;53.0;48.0;
52290;PMS5003;39663;45.432;28.050;2023-02-26T01:08:18;50.0;47.0;
52290;PMS5003;39663;45.432;28.050;2023-02-26T01:08:56;52.0;44.0;
52290;PMS5003;39663;45.432;28.050;2023-02-26T01:09:35;56.0;50.0;
52290;PMS5003;39663;45.432;28.050;2023-02-26T01:10:08;50.0;48.0;
52290;PMS5003;39663;45.432;28.050;2023-02-26T01:10:42;58.0;43.0;
52290;PMS5003;39663;45.432;28.050;2023-02-26T01:11:14;53.0;45.0;
52290;PMS5003;39663;45.432;28.050;2023-02-26T01:11:45;55.0;46.0;
52290;PMS5003;39663;45.432;28.050;2023-02-26T01:12:18;53.0;49.0;
52290;PMS5003;39663;45.432;28.050;2023-02-26T01:12:50;53.0;51.0;
52290;PMS5003;39663;45.432;28.050;2023-02-26T01:13:22;61.0;51.0;
52290;PMS5003;39663;45.432;28.050;2023-02-26T01:13:54;49.0;47.0;
52290;PMS5003;39663;45.432;28.050;2023-02-26T01:14:27;53.0;47.0;
52290;PMS5003;39663;45.432;28.050;2023-02-26T01:14:59;46.0;41.0;
52290;PMS5003;39663;45.432;28.050;2023-02-26T01:15:31;54.0;51.0;
52290;PMS5003;39663;45.432;28.050;2023-02-26T01:16:05;60.0;52.0;
52290;PMS5003;39663;45.432;28.050;2023-02-26T01:16:46;60.0;51.0;
52290;PMS5003;39663;45.432;28.050;2023-02-26T01:17:24;59.0;52.0;
52290;PMS5003;39663;45.432;28.050;2023-02-26T01:18:03;54.0;45.0;
52290;PMS5003;39663;45.432;28.050;2023-02-26T01:18:42;57.0;47.0;
52290;PMS5003;39663;45.432;28.050;2023-02-26T01:19:19;56.0;49.0;
52290;PMS5003;39663;45.432;28.050;2023-02-26T01:19:59;52.0;41.0;
52290;PMS5003;39663;45.432;28.050;2023-02-26T01:20:36;49.0;44.0;
52290;PMS5003;39663;45.432;28.050;2023-02-26T01:21:14;50.0;47.0;
52290;PMS5003;39663;45.432;28.050;2023-02-26T01:21:50;47.0;42.0;
52290;PMS5003;39663;45.432;28.050;2023-02-26T01:22:27;51.0;50.0;
52290;PMS5003;39663;45.432;28.050;2023-02-26T01:23:04;44.0;42.0;
52290;PMS5003;39663;45.432;28.050;2023-02-26T01:23:39;55.0;51.0;
52290;PMS5003;39663;45.432;28.050;2023-02-26T01:24:15;56.0;47.0;
52290;PMS5003;39663;45.432;28.050;2023-02-26T01:24:53;67.0;51.0;
52290;PMS5003;39663;45.432;28.050;2023-02-26T01:25:35;57.0;49.0;
52290;PMS5003;39663;45.432;28.050;2023-02-26T01:26:11;58.0;53.0;
52290;PMS5003;39663;45.432;28.050;2023-02-26T01:26:48;51.0;45.0;
52290;PMS5003;39663;45.432;28.050;2023-02-26T01:27:20;57.0;50.0;
52290;PMS5003;39663;45.432;28.050;2023-02-26T01:27:52;51.0;46.0;
52290;PMS5003;39663;45.432;28.050;2023-02-26T01:28:24;52.0;47.0;
52290;PMS5003;39663;45.432;28.050;2023-02-26T01:28:56;53.0;44.0;
52290;PMS5003;39663;45.432;28.050;2023-02-26T01:29:28;58.0;48.0;
52290;PMS5003;39663;45.432;28.050;2023-02-26T01:30:00;45.0;40.0;
52290;PMS5003;39663;45.432;28.050;2023-02-26T01:30:33;54.0;45.0;
52290;PMS5003;39663;45.432;28.050;2023-02-26T01:31:05;49.0;44.0;
52290;PMS5003;39663;45.432;28.050;2023-02-26T01:31:49;47.0;44.0;
52290;PMS5003;39663;45.432;28.050;2023-02-26T01:32:34;49.0;43.0;
52290;PMS5003;39663;45.432;28.050;2023-02-26T01:33:14;44.0;42.0;
52290;PMS5003;39663;45.432;28.050;2023-02-26T01:33:52;41.0;39.0;
52290;PMS5003;39663;45.432;28.050;2023-02-26T01:34:31;51.0;43.0;
52290;PMS5003;39663;45.432;28.050;2023-02-26T01:35:07;53.0;46.0;
52290;PMS5003;39663;45.432;28.050;2023-02-26T01:35:48;59.0;47.0;
52290;PMS5003;39663;45.432;28.050;2023-02-26T01:36:23;50.0;42.0;
52290;PMS5003;39663;45.432;28.050;2023-02-26T01:37:01;53.0;47.0;
52290;PMS5003;39663;45.432;28.050;2023-02-26T01:37:40;48.0;44.0;
52290;PMS5003;39663;45.432;28.050;2023-02-26T01:38:22;43.0;39.0;
52290;PMS5003;39663;45.432;28.050;2023-02-26T01:39:01;45.0;42.0;
52290;PMS5003;39663;45.432;28.050;2023-02-26T01:39:42;49.0;43.0;
52290;PMS5003;39663;45.432;28.050;2023-02-26T01:40:32;51.0;45.0;
52290;PMS5003;39663;45.432;28.050;2023-02-26T01:41:29;47.0;43.0;
52290;PMS5003;39663;45.432;28.050;2023-02-26T01:42:08;49.0;49.0;
52290;PMS5003;39663;45.432;28.050;2023-02-26T01:42:45;55.0;48.0;
52290;PMS5003;39663;45.432;28.050;2023-02-26T01:43:21;53.0;42.0;
52290;PMS5003;39663;45.432;28.050;2023-02-26T01:44:01;48.0;38.0;
52290;PMS5003;39663;45.432;28.050;2023-02-26T01:44:40;50.0;44.0;
52290;PMS5003;39663;45.432;28.050;2023-02-26T01:45:22;47.0;40.0;
52290;PMS5003;39663;45.432;28.050;2023-02-26T01:46:00;50.0;46.0;
52290;PMS5003;39663;45.432;28.050;2023-02-26T01:46:38;46.0;39.0;
52290;PMS5003;39663;45.432;28.050;2023-02-26T01:47:28;49.0;47.0;
52290;PMS5003;39663;45.432;28.050;2023-02-26T01:48:10;51.0;47.0;
52290;PMS5003;39663;45.432;28.050;2023-02-26T01:48:48;49.0;46.0;
52290;PMS5003;39663;45.432;28.050;2023-02-26T01:49:21;44.0;43.0;
52290;PMS5003;39663;45.432;28.050;2023-02-26T01:49:53;49.0;42.0;
52290;PMS5003;39663;45.432;28.050;2023-02-26T01:50:26;41.0;40.0;
52290;PMS5003;39663;45.432;28.050;2023-02-26T01:50:58;47.0;45.0;
52290;PMS5003;39663;45.432;28.050;2023-02-26T01:51:45;46.0;39.0;
52290;PMS5003;39663;45.432;28.050;2023-02-26T01:53:16;44.0;41.0;
52290;PMS5003;39663;45.432;28.050;2023-02-26T01:53:49;45.0;41.0;
52290;PMS5003;39663;45.432;28.050;2023-02-26T01:54:22;49.0;42.0;
52290;PMS5003;39663;45.432;28.050;2023-02-26T01:54:55;47.0;44.0;
52290;PMS5003;39663;45.432;28.050;2023-02-26T01:55:27;39.0;39.0;
52290;PMS5003;39663;45.432;28.050;2023-02-26T01:56:00;41.0;38.0;
52290;PMS5003;39663;45.432;28.050;2023-02-26T01:56:36;45.0;40.0;
52290;PMS5003;39663;45.432;28.050;2023-02-26T01:57:09;45.0;40.0;
52290;PMS5003;39663;45.432;28.050;2023-02-26T01:57:44;50.0;45.0;
52290;PMS5003;39663;45.432;28.050;2023-02-26T01:58:17;40.0;35.0;
52290;PMS5003;39663;45.432;28.050;2023-02-26T01:58:51;49.0;38.0;
52290;PMS5003;39663;45.432;28.050;2023-02-26T01:59:22;51.0;47.0;
52290;PMS5003;39663;45.432;28.050;2023-02-26T01:59:54;47.0;42.0;
52290;PMS5003;39663;45.432;28.050;2023-02-26T02:00:26;44.0;38.0;
52290;PMS5003;39663;45.432;28.050;2023-02-26T02:00:58;52.0;46.0;
52290;PMS5003;39663;45.432;28.050;2023-02-26T02:01:30;37.0;37.0;
52290;PMS5003;39663;45.432;28.050;2023-02-26T02:02:12;50.0;41.0;
52290;PMS5003;39663;45.432;28.050;2023-02-26T02:02:47;42.0;38.0;
52290;PMS5003;39663;45.432;28.050;2023-02-26T02:03:19;39.0;36.0;
52290;PMS5003;39663;45.432;28.050;2023-02-26T02:03:51;40.0;36.0;
52290;PMS5003;39663;45.432;28.050;2023-02-26T02:04:23;39.0;36.0;
52290;PMS5003;39663;45.432;28.050;2023-02-26T02:04:55;43.0;41.0;
52290;PMS5003;39663;45.432;28.050;2023-02-26T02:05:30;39.0;38.0;
52290;PMS5003;39663;45.432;28.050;2023-02-26T02:06:06;36.0;34.0;
52290;PMS5003;39663;45.432;28.050;2023-02-26T02:06:39;34.0;33.0;
52290;PMS5003;39663;45.432;28.050;2023-02-26T02:07:12;43.0;40.0;
52290;PMS5003;39663;45.432;28.050;2023-02-26T02:07:44;45.0;45.0;
52290;PMS5003;39663;45.432;28.050;2023-02-26T02:08:15;36.0;35.0;
52290;PMS5003;39663;45.432;28.050;2023-02-26T02:08:48;43.0;36.0;
52290;PMS5003;39663;45.432;28.050;2023-02-26T02:09:20;40.0;36.0;
52290;PMS5003;39663;45.432;28.050;2023-02-26T02:09:51;44.0;40.0;
52290;PMS5003;39663;45.432;28.050;2023-02-26T02:10:23;36.0;34.0;
52290;PMS5003;39663;45.432;28.050;2023-02-26T02:10:55;40.0;37.0;
52290;PMS5003;39663;45.432;28.050;2023-02-26T02:11:26;40.0;35.0;
52290;PMS5003;39663;45.432;28.050;2023-02-26T02:12:01;35.0;31.0;
52290;PMS5003;39663;45.432;28.050;2023-02-26T02:12:43;42.0;39.0;
52290;PMS5003;39663;45.432;28.050;2023-02-26T02:13:27;42.0;38.0;
52290;PMS5003;39663;45.432;28.050;2023-02-26T02:14:09;38.0;32.0;
52290;PMS5003;39663;45.432;28.050;2023-02-26T02:14:52;32.0;29.0;
52290;PMS5003;39663;45.432;28.050;2023-02-26T02:15:36;42.0;40.0;
52290;PMS5003;39663;45.432;28.050;2023-02-26T02:16:16;44.0;35.0;
52290;PMS5003;39663;45.432;28.050;2023-02-26T02:16:53;38.0;35.0;
52290;PMS5003;39663;45.432;28.050;2023-02-26T02:17:31;43.0;39.0;
52290;PMS5003;39663;45.432;28.050;2023-02-26T02:18:13;40.0;34.0;
52290;PMS5003;39663;45.432;28.050;2023-02-26T02:18:54;41.0;35.0;
52290;PMS5003;39663;45.432;28.050;2023-02-26T02:19:39;42.0;35.0;
52290;PMS5003;39663;45.432;28.050;2023-02-26T02:20:28;36.0;31.0;
52290;PMS5003;39663;45.432;28.050;2023-02-26T02:21:28;39.0;33.0;
52290;PMS5003;39663;45.432;28.050;2023-02-26T02:22:15;39.0;33.0;
52290;PMS5003;39663;45.432;28.050;2023-02-26T02:23:11;45.0;39.0;
52290;PMS5003;39663;45.432;28.050;2023-02-26T02:23:49;41.0;36.0;
52290;PMS5003;39663;45.432;28.050;2023-02-26T02:24:28;46.0;39.0;
52290;PMS5003;39663;45.432;28.050;2023-02-26T02:25:11;38.0;33.0;
52290;PMS5003;39663;45.432;28.050;2023-02-26T02:26:10;46.0;36.0;
52290;PMS5003;39663;45.432;28.050;2023-02-26T02:26:59;40.0;30.0;
52290;PMS5003;39663;45.432;28.050;2023-02-26T02:27:39;37.0;35.0;
52290;PMS5003;39663;45.432;28.050;2023-02-26T02:28:21;33.0;30.0;
52290;PMS5003;39663;45.432;28.050;2023-02-26T02:29:10;42.0;38.0;
52290;PMS5003;39663;45.432;28.050;2023-02-26T02:30:02;34.0;33.0;
52290;PMS5003;39663;45.432;28.050;2023-02-26T02:30:54;41.0;35.0;
52290;PMS5003;39663;45.432;28.050;2023-02-26T02:31:32;35.0;34.0;
52290;PMS5003;39663;45.432;28.050;2023-02-26T02:32:09;46.0;36.0;
52290;PMS5003;39663;45.432;28.050;2023-02-26T02:32:44;44.0;34.0;
52290;PMS5003;39663;45.432;28.050;2023-02-26T02:33:20;52.0;43.0;
52290;PMS5003;39663;45.432;28.050;2023-02-26T02:34:00;36.0;34.0;
52290;PMS5003;39663;45.432;28.050;2023-02-26T02:34:40;39.0;32.0;
52290;PMS5003;39663;45.432;28.050;2023-02-26T02:35:19;36.0;33.0;
52290;PMS5003;39663;45.432;28.050;2023-02-26T02:35:56;41.0;38.0;
52290;PMS5003;39663;45.432;28.050;2023-02-26T02:36:32;39.0;33.0;
52290;PMS5003;39663;45.432;28.050;2023-02-26T02:37:17;32.0;31.0;
52290;PMS5003;39663;45.432;28.050;2023-02-26T02:37:54;46.0;40.0;
52290;PMS5003;39663;45.432;28.050;2023-02-26T02:38:32;34.0;32.0;
52290;PMS5003;39663;45.432;28.050;2023-02-26T02:39:07;44.0;38.0;
52290;PMS5003;39663;45.432;28.050;2023-02-26T02:39:45;41.0;36.0;
52290;PMS5003;39663;45.432;28.050;2023-02-26T02:40:21;42.0;39.0;
52290;PMS5003;39663;45.432;28.050;2023-02-26T02:41:02;38.0;35.0;
52290;PMS5003;39663;45.432;28.050;2023-02-26T02:41:38;43.0;35.0;
52290;PMS5003;39663;45.432;28.050;2023-02-26T02:42:18;37.0;33.0;
52290;PMS5003;39663;45.432;28.050;2023-02-26T02:42:54;38.0;35.0;
52290;PMS5003;39663;45.432;28.050;2023-02-26T02:43:30;39.0;33.0;
52290;PMS5003;39663;45.432;28.050;2023-02-26T02:44:04;39.0;38.0;
52290;PMS5003;39663;45.432;28.050;2023-02-26T02:44:44;42.0;37.0;
52290;PMS5003;39663;45.432;28.050;2023-02-26T02:45:22;43.0;37.0;
52290;PMS5003;39663;45.432;28.050;2023-02-26T02:45:59;40.0;35.0;
52290;PMS5003;39663;45.432;28.050;2023-02-26T02:46:35;35.0;30.0;
52290;PMS5003;39663;45.432;28.050;2023-02-26T02:47:10;36.0;32.0;
52290;PMS5003;39663;45.432;28.050;2023-02-26T02:47:46;37.0;34.0;
52290;PMS5003;39663;45.432;28.050;2023-02-26T02:48:23;41.0;36.0;
52290;PMS5003;39663;45.432;28.050;2023-02-26T02:49:00;39.0;32.0;
52290;PMS5003;39663;45.432;28.050;2023-02-26T02:49:35;40.0;36.0;
52290;PMS5003;39663;45.432;28.050;2023-02-26T02:50:13;39.0;36.0;
52290;PMS5003;39663;45.432;28.050;2023-02-26T02:50:54;34.0;32.0;
52290;PMS5003;39663;45.432;28.050;2023-02-26T02:51:30;42.0;34.0;
52290;PMS5003;39663;45.432;28.050;2023-02-26T02:52:06;38.0;35.0;
52290;PMS5003;39663;45.432;28.050;2023-02-26T02:52:44;39.0;35.0;
52290;PMS5003;39663;45.432;28.050;2023-02-26T02:53:20;44.0;35.0;
52290;PMS5003;39663;45.432;28.050;2023-02-26T02:53:58;34.0;29.0;
52290;PMS5003;39663;45.432;28.050;2023-02-26T02:54:35;33.0;30.0;
52290;PMS5003;39663;45.432;28.050;2023-02-26T02:55:12;35.0;29.0;
52290;PMS5003;39663;45.432;28.050;2023-02-26T02:55:50;31.0;29.0;
52290;PMS5003;39663;45.432;28.050;2023-02-26T02:56:28;33.0;32.0;
52290;PMS5003;39663;45.432;28.050;2023-02-26T02:57:05;47.0;40.0;
52290;PMS5003;39663;45.432;28.050;2023-02-26T02:57:41;40.0;34.0;
52290;PMS5003;39663;45.432;28.050;2023-02-26T02:58:17;38.0;34.0;
52290;PMS5003;39663;45.432;28.050;2023-02-26T02:58:54;41.0;39.0;
52290;PMS5003;39663;45.432;28.050;2023-02-26T02:59:31;45.0;37.0;
52290;PMS5003;39663;45.432;28.050;2023-02-26T03:00:13;38.0;32.0;
52290;PMS5003;39663;45.432;28.050;2023-02-26T03:00:49;35.0;33.0;
52290;PMS5003;39663;45.432;28.050;2023-02-26T03:01:24;40.0;35.0;
52290;PMS5003;39663;45.432;28.050;2023-02-26T03:01:59;40.0;36.0;
52290;PMS5003;39663;45.432;28.050;2023-02-26T03:02:38;42.0;39.0;
52290;PMS5003;39663;45.432;28.050;2023-02-26T03:03:16;43.0;37.0;
52290;PMS5003;39663;45.432;28.050;2023-02-26T03:03:55;40.0;32.0;
52290;PMS5003;39663;45.432;28.050;2023-02-26T03:04:32;40.0;33.0;
52290;PMS5003;39663;45.432;28.050;2023-02-26T03:05:05;42.0;38.0;
52290;PMS5003;39663;45.432;28.050;2023-02-26T03:05:36;41.0;38.0;
52290;PMS5003;39663;45.432;28.050;2023-02-26T03:06:08;38.0;34.0;
52290;PMS5003;39663;45.432;28.050;2023-02-26T03:06:39;37.0;30.0;
52290;PMS5003;39663;45.432;28.050;2023-02-26T03:07:11;43.0;36.0;
52290;PMS5003;39663;45.432;28.050;2023-02-26T03:07:45;41.0;32.0;
52290;PMS5003;39663;45.432;28.050;2023-02-26T03:08:20;36.0;35.0;
52290;PMS5003;39663;45.432;28.050;2023-02-26T03:08:56;33.0;30.0;
52290;PMS5003;39663;45.432;28.050;2023-02-26T03:09:29;40.0;37.0;
52290;PMS5003;39663;45.432;28.050;2023-02-26T03:10:01;36.0;33.0;
52290;PMS5003;39663;45.432;28.050;2023-02-26T03:10:33;37.0;34.0;
52290;PMS5003;39663;45.432;28.050;2023-02-26T03:11:05;39.0;37.0;
52290;PMS5003;39663;45.432;28.050;2023-02-26T03:11:37;36.0;31.0;
52290;PMS5003;39663;45.432;28.050;2023-02-26T03:12:09;38.0;34.0;
52290;PMS5003;39663;45.432;28.050;2023-02-26T03:12:41;39.0;32.0;
52290;PMS5003;39663;45.432;28.050;2023-02-26T03:13:14;40.0;34.0;
52290;PMS5003;39663;45.432;28.050;2023-02-26T03:13:46;37.0;34.0;
52290;PMS5003;39663;45.432;28.050;2023-02-26T03:14:19;36.0;36.0;
52290;PMS5003;39663;45.432;28.050;2023-02-26T03:14:51;40.0;36.0;
52290;PMS5003;39663;45.432;28.050;2023-02-26T03:15:26;40.0;36.0;
52290;PMS5003;39663;45.432;28.050;2023-02-26T03:16:08;38.0;35.0;
52290;PMS5003;39663;45.432;28.050;2023-02-26T03:16:58;47.0;41.0;
52290;PMS5003;39663;45.432;28.050;2023-02-26T03:17:40;43.0;37.0;
52290;PMS5003;39663;45.432;28.050;2023-02-26T03:18:23;46.0;38.0;
52290;PMS5003;39663;45.432;28.050;2023-02-26T03:19:07;42.0;37.0;
52290;PMS5003;39663;45.432;28.050;2023-02-26T03:19:53;48.0;44.0;
52290;PMS5003;39663;45.432;28.050;2023-02-26T03:20:32;33.0;33.0;
52290;PMS5003;39663;45.432;28.050;2023-02-26T03:21:09;40.0;38.0;
52290;PMS5003;39663;45.432;28.050;2023-02-26T03:21:48;36.0;32.0;
52290;PMS5003;39663;45.432;28.050;2023-02-26T03:22:28;39.0;37.0;
52290;PMS5003;39663;45.432;28.050;2023-02-26T03:23:07;42.0;34.0;
52290;PMS5003;39663;45.432;28.050;2023-02-26T03:23:45;40.0;35.0;
52290;PMS5003;39663;45.432;28.050;2023-02-26T03:24:25;39.0;34.0;
52290;PMS5003;39663;45.432;28.050;2023-02-26T03:25:03;39.0;36.0;
52290;PMS5003;39663;45.432;28.050;2023-02-26T03:25:49;37.0;30.0;
52290;PMS5003;39663;45.432;28.050;2023-02-26T03:26:26;41.0;34.0;
52290;PMS5003;39663;45.432;28.050;2023-02-26T03:27:04;42.0;37.0;
52290;PMS5003;39663;45.432;28.050;2023-02-26T03:27:44;34.0;32.0;
52290;PMS5003;39663;45.432;28.050;2023-02-26T03:28:25;41.0;35.0;
52290;PMS5003;39663;45.432;28.050;2023-02-26T03:29:03;34.0;30.0;
52290;PMS5003;39663;45.432;28.050;2023-02-26T03:29:42;38.0;35.0;
52290;PMS5003;39663;45.432;28.050;2023-02-26T03:30:21;36.0;35.0;
52290;PMS5003;39663;45.432;28.050;2023-02-26T03:31:01;45.0;34.0;
52290;PMS5003;39663;45.432;28.050;2023-02-26T03:31:39;37.0;31.0;
52290;PMS5003;39663;45.432;28.050;2023-02-26T03:32:18;45.0;33.0;
52290;PMS5003;39663;45.432;28.050;2023-02-26T03:32:55;42.0;36.0;
52290;PMS5003;39663;45.432;28.050;2023-02-26T03:33:33;38.0;30.0;
52290;PMS5003;39663;45.432;28.050;2023-02-26T03:34:16;31.0;28.0;
52290;PMS5003;39663;45.432;28.050;2023-02-26T03:34:52;37.0;33.0;
52290;PMS5003;39663;45.432;28.050;2023-02-26T03:35:31;41.0;38.0;
52290;PMS5003;39663;45.432;28.050;2023-02-26T03:36:09;34.0;30.0;
52290;PMS5003;39663;45.432;28.050;2023-02-26T03:36:49;37.0;31.0;
52290;PMS5003;39663;45.432;28.050;2023-02-26T03:37:29;37.0;32.0;
52290;PMS5003;39663;45.432;28.050;2023-02-26T03:38:06;37.0;34.0;
52290;PMS5003;39663;45.432;28.050;2023-02-26T03:38:44;36.0;30.0;
52290;PMS5003;39663;45.432;28.050;2023-02-26T03:39:23;33.0;30.0;
52290;PMS5003;39663;45.432;28.050;2023-02-26T03:39:59;43.0;37.0;
52290;PMS5003;39663;45.432;28.050;2023-02-26T03:40:36;36.0;29.0;
52290;PMS5003;39663;45.432;28.050;2023-02-26T03:41:15;47.0;41.0;
52290;PMS5003;39663;45.432;28.050;2023-02-26T03:41:52;40.0;36.0;
52290;PMS5003;39663;45.432;28.050;2023-02-26T03:42:31;33.0;31.0;
52290;PMS5003;39663;45.432;28.050;2023-02-26T03:43:11;39.0;35.0;
52290;PMS5003;39663;45.432;28.050;2023-02-26T03:43:47;43.0;38.0;